Council Grove, Kansas
Current Conditions -  °F | °C
As of 5:15 AM on Sunday 21 Dec 2014 (Local Time) from KEMP Reporting Station
Haze Haze  
Wind Chill: 32°   Ceiling: 900
Heat Index: 38°   Visibility: 5mi
Dew Point: 37°   Wind: 8mph
Humidity: 97%   Direction: 170°S
Pressure: 30.02"   Gusts: NA
Location:  38.66°N, 96.49°W
Report Text: KEMP 211115Z AUTO 17007KT 5SM BR OVC009 03/03 A3002 RMK AO2 CIG 007V011 T00330028
Loading
Personal Weather Stations






























Interactive Weather Map New forecast layout! Learn more

10-Day Weather Forecast

Advertisements
Track Severe Weather on mobile